Welcome to our new website - Welkom op onze vernieuwde website - Bienvenue sur notre nouveau site web - Willkommen auf unserer neuen Website
Check our progress frequently. Prüfen Sie unsere Fortschritte regelmäßig. Consultez notre progression fréquemment. Komt u straks nog eens terug


Bezoek onze andere website:

Template documentation
and downloads

And another site



METAR rapporten vliegvelden

   
EBBR - Brussels International Airport, Belgium
Afstand tot: W 14 km
Gewijzigd: Aug 21 2018 2:20 am
Gedeeltelijk bewolkt  
Gedeeltelijk bewolkt  
   Wind: Kalm
Wind: Kalm
Temperatuur: 19°C
Dauwpunt: 15°C
Vochtigheid: 78%
Barometer: 1021 hPa
Bewolking: Gedeeltelijk bewolkt
Zicht: meer dan 10 km
Bewolking: Gedeeltelijk bewolkt 1219.2 m
EBBR 210020Z 00000KT 9999 SCT040 19/15 Q1021 NOSIG
EBBE - Beauvechain (Bevekom), Belgium
Afstand tot: ZZO 17 km
Gewijzigd: Aug 21 2018 1:55 am
Licht bewolkt  
Licht bewolkt  
   Wind: varieert 2 km/h
Wind: varieert 2 km/h
Temperatuur: 18°C
Dauwpunt: 16°C
Vochtigheid: 88%
Barometer: 1021 hPa
Bewolking: Licht bewolkt
Zicht: meer dan 10 km
Bewolking: Licht bewolkt 975.4 m
EBBE 202355Z AUTO VRB01KT 9999 FEW032/// 18/16 Q1021 BLU
EBDT - Schaffen, Belgium
Afstand tot: ONO 29 km
Gewijzigd: Aug 21 2018 1:55 am
Grotendeels bewolkt  
Grotendeels bewolkt  
   Wind: varieert 4 km/h
Wind: varieert 4 km/h
Temperatuur: 19°C
Dauwpunt: 17°C
Vochtigheid: 88%
Barometer: 1021 hPa
Bewolking: Grotendeels bewolkt
Zicht: meer dan 10 km
Bewolking: Grotendeels bewolkt 1280.2 m
EBDT 202355Z AUTO VRB02KT 9999 BKN042/// 19/17 Q1021 BLU
EBAW - Antwerp/Deurne, Belgium
Afstand tot: NNW 38 km
Gewijzigd: Aug 21 2018 2:20 am
Helder  
Helder  
   Wind: Oosten 2 km/h
Wind: Oosten 2 km/h
Temperatuur: 18°C
Dauwpunt: 16°C
Vochtigheid: 88%
Barometer: 1021 hPa
Zicht: meer dan 10 km
Bewolking: Helder
EBAW 210020Z AUTO 10001KT CAVOK 18/16 Q1021
EBCI - Charleroi/Gosselies, Belgium
Afstand tot: ZZW 51 km
Gewijzigd: Aug 21 2018 2:20 am
Gedeeltelijk bewolkt  
Gedeeltelijk bewolkt  
   Wind: Kalm
Wind: Kalm
Temperatuur: 18°C
Dauwpunt: 17°C
Vochtigheid: 94%
Barometer: 1021 hPa
Bewolking: Gedeeltelijk bewolkt
Zicht: meer dan 10 km
Bewolking: Gedeeltelijk bewolkt 731.5 m
EBCI 210020Z 00000KT 9999 SCT024 18/17 Q1021 NOSIG
EBLG - Bierset/Liege, Belgium
Afstand tot: OZO 60 km
Gewijzigd: Aug 21 2018 2:20 am
Grotendeels bewolkt  
Grotendeels bewolkt  
   Wind: varieert 4 km/h
Wind: varieert 4 km/h
Temperatuur: 19°C
Dauwpunt: 17°C
Vochtigheid: 88%
Barometer: 1021 hPa
Bewolking: Grotendeels bewolkt
Zicht: meer dan 10 km
Bewolking: Grotendeels bewolkt 853.4 m
EBLG 210020Z VRB02KT 9999 BKN028 19/17 Q1021 NOSIG

Script ontwikkeld door  Saratoga-weather.org Aangepast voor de template door  Weerstation Leuven

U vindt ons ook hier:

Het Weer Aktueel

UK Metoffice

European Weather Network

WeatherCloud

Weather Underground

AWEKAS

Apparatuur in gebruik:

Weerstation
Davis VP2

Weerprogramma
Meteobridge

Weercomputer
Tl-mr3020

Webleverancier
VIP Internet

Davis VP2

Meteobridge

Tl-mr3020

VIP Internet